sensor_id;sensor_type;location;lat;lon;timestamp;P1;durP1;ratioP1;P2;durP2;ratioP2
1106;SDS011;540;49.448;8.612;2023-08-08T00:01:55;4.20;;;1.50;;
1106;SDS011;540;49.448;8.612;2023-08-08T00:04:23;4.13;;;1.40;;
1106;SDS011;540;49.448;8.612;2023-08-08T00:06:51;2.30;;;1.38;;
1106;SDS011;540;49.448;8.612;2023-08-08T00:09:19;5.75;;;1.70;;
1106;SDS011;540;49.448;8.612;2023-08-08T00:11:47;5.68;;;1.85;;
1106;SDS011;540;49.448;8.612;2023-08-08T00:14:14;3.17;;;1.33;;
1106;SDS011;540;49.448;8.612;2023-08-08T00:16:44;2.80;;;1.48;;
1106;SDS011;540;49.448;8.612;2023-08-08T00:19:11;4.03;;;1.30;;
1106;SDS011;540;49.448;8.612;2023-08-08T00:21:39;3.08;;;1.73;;
1106;SDS011;540;49.448;8.612;2023-08-08T00:24:07;3.88;;;1.35;;
1106;SDS011;540;49.448;8.612;2023-08-08T00:26:35;3.15;;;1.73;;
1106;SDS011;540;49.448;8.612;2023-08-08T00:29:02;3.00;;;1.23;;
1106;SDS011;540;49.448;8.612;2023-08-08T00:31:30;2.88;;;1.70;;
1106;SDS011;540;49.448;8.612;2023-08-08T00:33:59;3.83;;;1.60;;
1106;SDS011;540;49.448;8.612;2023-08-08T00:36:27;2.50;;;1.70;;
1106;SDS011;540;49.448;8.612;2023-08-08T00:38:55;2.83;;;1.50;;
1106;SDS011;540;49.448;8.612;2023-08-08T00:41:23;3.97;;;1.80;;
1106;SDS011;540;49.448;8.612;2023-08-08T00:43:50;3.47;;;1.52;;
1106;SDS011;540;49.448;8.612;2023-08-08T00:46:18;3.03;;;1.48;;
1106;SDS011;540;49.448;8.612;2023-08-08T00:48:50;5.88;;;1.45;;
1106;SDS011;540;49.448;8.612;2023-08-08T00:51:20;2.15;;;1.17;;
1106;SDS011;540;49.448;8.612;2023-08-08T00:53:48;1.92;;;1.23;;
1106;SDS011;540;49.448;8.612;2023-08-08T00:56:17;3.25;;;1.50;;
1106;SDS011;540;49.448;8.612;2023-08-08T00:58:45;6.35;;;2.10;;
1106;SDS011;540;49.448;8.612;2023-08-08T01:01:12;4.65;;;1.80;;
1106;SDS011;540;49.448;8.612;2023-08-08T01:03:41;6.57;;;2.05;;
1106;SDS011;540;49.448;8.612;2023-08-08T01:06:10;6.07;;;1.58;;
1106;SDS011;540;49.448;8.612;2023-08-08T01:08:45;2.85;;;1.75;;
1106;SDS011;540;49.448;8.612;2023-08-08T01:11:18;3.50;;;1.52;;
1106;SDS011;540;49.448;8.612;2023-08-08T01:13:46;3.13;;;1.65;;
1106;SDS011;540;49.448;8.612;2023-08-08T01:16:14;4.20;;;2.00;;
1106;SDS011;540;49.448;8.612;2023-08-08T01:18:44;4.18;;;1.45;;
1106;SDS011;540;49.448;8.612;2023-08-08T01:21:14;3.03;;;1.95;;
1106;SDS011;540;49.448;8.612;2023-08-08T01:23:45;2.97;;;1.92;;
1106;SDS011;540;49.448;8.612;2023-08-08T01:26:20;3.17;;;1.52;;
1106;SDS011;540;49.448;8.612;2023-08-08T01:28:52;3.58;;;1.70;;
1106;SDS011;540;49.448;8.612;2023-08-08T01:31:20;5.97;;;2.05;;
1106;SDS011;540;49.448;8.612;2023-08-08T01:33:48;7.13;;;2.05;;
1106;SDS011;540;49.448;8.612;2023-08-08T01:36:19;2.75;;;2.03;;
1106;SDS011;540;49.448;8.612;2023-08-08T01:38:51;5.90;;;2.05;;
1106;SDS011;540;49.448;8.612;2023-08-08T01:41:27;5.60;;;2.20;;
1106;SDS011;540;49.448;8.612;2023-08-08T01:43:55;7.65;;;1.70;;
1106;SDS011;540;49.448;8.612;2023-08-08T01:46:23;5.65;;;1.98;;
1106;SDS011;540;49.448;8.612;2023-08-08T01:48:51;2.70;;;1.70;;
1106;SDS011;540;49.448;8.612;2023-08-08T01:51:19;2.35;;;1.30;;
1106;SDS011;540;49.448;8.612;2023-08-08T01:53:47;4.03;;;2.05;;
1106;SDS011;540;49.448;8.612;2023-08-08T01:56:15;4.28;;;1.85;;
1106;SDS011;540;49.448;8.612;2023-08-08T01:58:44;3.13;;;1.67;;
1106;SDS011;540;49.448;8.612;2023-08-08T02:01:12;4.25;;;1.98;;
1106;SDS011;540;49.448;8.612;2023-08-08T02:03:40;6.00;;;1.83;;
1106;SDS011;540;49.448;8.612;2023-08-08T02:06:08;2.90;;;1.80;;
1106;SDS011;540;49.448;8.612;2023-08-08T02:08:36;4.40;;;1.90;;
1106;SDS011;540;49.448;8.612;2023-08-08T02:11:03;3.90;;;2.00;;
1106;SDS011;540;49.448;8.612;2023-08-08T02:13:31;5.18;;;2.00;;
1106;SDS011;540;49.448;8.612;2023-08-08T02:16:00;3.10;;;1.90;;
1106;SDS011;540;49.448;8.612;2023-08-08T02:18:28;4.40;;;2.15;;
1106;SDS011;540;49.448;8.612;2023-08-08T02:20:56;3.75;;;1.63;;
1106;SDS011;540;49.448;8.612;2023-08-08T02:23:24;5.18;;;2.20;;
1106;SDS011;540;49.448;8.612;2023-08-08T02:25:52;4.30;;;2.00;;
1106;SDS011;540;49.448;8.612;2023-08-08T02:28:20;3.28;;;2.03;;
1106;SDS011;540;49.448;8.612;2023-08-08T02:30:48;4.38;;;2.33;;
1106;SDS011;540;49.448;8.612;2023-08-08T02:33:17;3.45;;;1.92;;
1106;SDS011;540;49.448;8.612;2023-08-08T02:35:45;6.20;;;2.20;;
1106;SDS011;540;49.448;8.612;2023-08-08T02:38:13;3.88;;;2.10;;
1106;SDS011;540;49.448;8.612;2023-08-08T02:40:41;5.07;;;1.90;;
1106;SDS011;540;49.448;8.612;2023-08-08T02:43:08;6.43;;;1.90;;
1106;SDS011;540;49.448;8.612;2023-08-08T02:45:37;3.92;;;1.88;;
1106;SDS011;540;49.448;8.612;2023-08-08T02:48:05;4.05;;;1.83;;
1106;SDS011;540;49.448;8.612;2023-08-08T02:50:34;4.18;;;2.22;;
1106;SDS011;540;49.448;8.612;2023-08-08T02:53:02;2.65;;;1.80;;
1106;SDS011;540;49.448;8.612;2023-08-08T02:55:30;5.78;;;2.20;;
1106;SDS011;540;49.448;8.612;2023-08-08T02:57:58;3.83;;;1.88;;
1106;SDS011;540;49.448;8.612;2023-08-08T03:00:26;3.47;;;2.10;;
1106;SDS011;540;49.448;8.612;2023-08-08T03:02:54;3.28;;;1.90;;
1106;SDS011;540;49.448;8.612;2023-08-08T03:05:22;5.60;;;2.30;;
1106;SDS011;540;49.448;8.612;2023-08-08T03:07:51;4.80;;;2.45;;
1106;SDS011;540;49.448;8.612;2023-08-08T03:10:18;5.70;;;2.40;;
1106;SDS011;540;49.448;8.612;2023-08-08T03:12:46;3.28;;;2.00;;
1106;SDS011;540;49.448;8.612;2023-08-08T03:15:14;7.00;;;2.20;;
1106;SDS011;540;49.448;8.612;2023-08-08T03:17:42;4.57;;;2.20;;
1106;SDS011;540;49.448;8.612;2023-08-08T03:20:10;7.90;;;2.25;;
1106;SDS011;540;49.448;8.612;2023-08-08T03:22:38;6.35;;;2.55;;
1106;SDS011;540;49.448;8.612;2023-08-08T03:25:08;5.85;;;2.67;;
1106;SDS011;540;49.448;8.612;2023-08-08T03:27:36;3.58;;;2.13;;
1106;SDS011;540;49.448;8.612;2023-08-08T03:30:04;6.82;;;2.30;;
1106;SDS011;540;49.448;8.612;2023-08-08T03:32:33;6.28;;;2.45;;
1106;SDS011;540;49.448;8.612;2023-08-08T03:35:00;9.45;;;2.42;;
1106;SDS011;540;49.448;8.612;2023-08-08T03:37:29;3.53;;;2.05;;
1106;SDS011;540;49.448;8.612;2023-08-08T03:39:57;4.13;;;2.20;;
1106;SDS011;540;49.448;8.612;2023-08-08T03:42:26;5.43;;;2.15;;
1106;SDS011;540;49.448;8.612;2023-08-08T03:44:54;5.00;;;2.03;;
1106;SDS011;540;49.448;8.612;2023-08-08T03:47:22;6.43;;;2.30;;
1106;SDS011;540;49.448;8.612;2023-08-08T03:49:50;5.80;;;2.45;;
1106;SDS011;540;49.448;8.612;2023-08-08T03:52:21;4.82;;;2.25;;
1106;SDS011;540;49.448;8.612;2023-08-08T03:54:49;5.13;;;2.45;;
1106;SDS011;540;49.448;8.612;2023-08-08T03:57:16;6.93;;;2.90;;
1106;SDS011;540;49.448;8.612;2023-08-08T03:59:45;6.03;;;2.70;;
1106;SDS011;540;49.448;8.612;2023-08-08T04:02:13;4.38;;;2.33;;
1106;SDS011;540;49.448;8.612;2023-08-08T04:04:41;4.35;;;2.50;;
1106;SDS011;540;49.448;8.612;2023-08-08T04:07:09;8.93;;;3.03;;
1106;SDS011;540;49.448;8.612;2023-08-08T04:09:37;6.75;;;2.33;;
1106;SDS011;540;49.448;8.612;2023-08-08T04:12:05;4.00;;;2.53;;
1106;SDS011;540;49.448;8.612;2023-08-08T04:14:33;4.78;;;2.47;;
1106;SDS011;540;49.448;8.612;2023-08-08T04:17:02;8.95;;;3.75;;
1106;SDS011;540;49.448;8.612;2023-08-08T04:19:31;4.20;;;2.50;;
1106;SDS011;540;49.448;8.612;2023-08-08T04:21:58;4.47;;;2.53;;
1106;SDS011;540;49.448;8.612;2023-08-08T04:24:27;3.58;;;2.30;;
1106;SDS011;540;49.448;8.612;2023-08-08T04:26:55;5.22;;;2.30;;
1106;SDS011;540;49.448;8.612;2023-08-08T04:29:23;4.28;;;2.33;;
1106;SDS011;540;49.448;8.612;2023-08-08T04:31:50;3.45;;;2.25;;
1106;SDS011;540;49.448;8.612;2023-08-08T04:34:19;6.40;;;2.85;;
1106;SDS011;540;49.448;8.612;2023-08-08T04:36:47;6.65;;;2.28;;
1106;SDS011;540;49.448;8.612;2023-08-08T04:39:15;6.63;;;2.90;;
1106;SDS011;540;49.448;8.612;2023-08-08T04:41:43;5.72;;;2.45;;
1106;SDS011;540;49.448;8.612;2023-08-08T04:44:11;4.25;;;2.70;;
1106;SDS011;540;49.448;8.612;2023-08-08T04:46:38;4.55;;;2.20;;
1106;SDS011;540;49.448;8.612;2023-08-08T04:49:06;7.53;;;3.20;;
1106;SDS011;540;49.448;8.612;2023-08-08T04:51:35;5.68;;;2.58;;
1106;SDS011;540;49.448;8.612;2023-08-08T04:54:03;7.75;;;3.00;;
1106;SDS011;540;49.448;8.612;2023-08-08T04:56:31;4.30;;;2.60;;
1106;SDS011;540;49.448;8.612;2023-08-08T04:58:59;7.35;;;2.28;;
1106;SDS011;540;49.448;8.612;2023-08-08T05:01:28;3.70;;;2.10;;
1106;SDS011;540;49.448;8.612;2023-08-08T05:03:55;5.15;;;2.45;;
1106;SDS011;540;49.448;8.612;2023-08-08T05:06:23;4.32;;;2.20;;
1106;SDS011;540;49.448;8.612;2023-08-08T05:08:53;3.28;;;2.10;;
1106;SDS011;540;49.448;8.612;2023-08-08T05:11:22;6.38;;;2.50;;
1106;SDS011;540;49.448;8.612;2023-08-08T05:13:50;10.55;;;3.42;;
1106;SDS011;540;49.448;8.612;2023-08-08T05:16:18;4.40;;;2.30;;
1106;SDS011;540;49.448;8.612;2023-08-08T05:18:46;3.60;;;2.60;;
1106;SDS011;540;49.448;8.612;2023-08-08T05:21:14;3.88;;;2.33;;
1106;SDS011;540;49.448;8.612;2023-08-08T05:23:42;6.05;;;3.88;;
1106;SDS011;540;49.448;8.612;2023-08-08T05:26:11;7.97;;;3.20;;
1106;SDS011;540;49.448;8.612;2023-08-08T05:28:39;5.35;;;2.90;;
1106;SDS011;540;49.448;8.612;2023-08-08T05:31:07;5.80;;;2.60;;
1106;SDS011;540;49.448;8.612;2023-08-08T05:33:35;5.95;;;3.50;;
1106;SDS011;540;49.448;8.612;2023-08-08T05:36:03;4.75;;;2.38;;
1106;SDS011;540;49.448;8.612;2023-08-08T05:38:31;3.95;;;2.13;;
1106;SDS011;540;49.448;8.612;2023-08-08T05:40:59;6.63;;;2.38;;
1106;SDS011;540;49.448;8.612;2023-08-08T05:43:28;5.93;;;2.45;;
1106;SDS011;540;49.448;8.612;2023-08-08T05:45:56;6.03;;;2.95;;
1106;SDS011;540;49.448;8.612;2023-08-08T05:48:24;4.65;;;2.13;;
1106;SDS011;540;49.448;8.612;2023-08-08T05:50:52;4.25;;;2.10;;
1106;SDS011;540;49.448;8.612;2023-08-08T05:53:20;5.25;;;2.85;;
1106;SDS011;540;49.448;8.612;2023-08-08T05:55:48;5.40;;;2.58;;
1106;SDS011;540;49.448;8.612;2023-08-08T05:58:17;5.43;;;2.72;;
1106;SDS011;540;49.448;8.612;2023-08-08T06:00:46;6.20;;;2.90;;
1106;SDS011;540;49.448;8.612;2023-08-08T06:03:14;5.72;;;2.40;;
1106;SDS011;540;49.448;8.612;2023-08-08T06:05:42;4.68;;;2.53;;
1106;SDS011;540;49.448;8.612;2023-08-08T06:08:10;6.75;;;2.20;;
1106;SDS011;540;49.448;8.612;2023-08-08T06:10:39;5.05;;;2.60;;
1106;SDS011;540;49.448;8.612;2023-08-08T06:13:07;3.80;;;2.13;;
1106;SDS011;540;49.448;8.612;2023-08-08T06:15:35;10.95;;;2.55;;
1106;SDS011;540;49.448;8.612;2023-08-08T06:18:04;4.82;;;2.35;;
1106;SDS011;540;49.448;8.612;2023-08-08T06:20:32;4.22;;;1.90;;
1106;SDS011;540;49.448;8.612;2023-08-08T06:23:00;5.95;;;2.10;;
1106;SDS011;540;49.448;8.612;2023-08-08T06:25:28;8.70;;;2.40;;
1106;SDS011;540;49.448;8.612;2023-08-08T06:27:56;6.93;;;2.38;;
1106;SDS011;540;49.448;8.612;2023-08-08T06:30:24;4.28;;;2.25;;
1106;SDS011;540;49.448;8.612;2023-08-08T06:32:52;6.97;;;2.35;;
1106;SDS011;540;49.448;8.612;2023-08-08T06:35:21;8.80;;;3.05;;
1106;SDS011;540;49.448;8.612;2023-08-08T06:37:49;4.32;;;2.33;;
1106;SDS011;540;49.448;8.612;2023-08-08T06:40:17;6.88;;;2.95;;
1106;SDS011;540;49.448;8.612;2023-08-08T06:42:45;3.63;;;2.00;;
1106;SDS011;540;49.448;8.612;2023-08-08T06:45:13;6.95;;;1.90;;
1106;SDS011;540;49.448;8.612;2023-08-08T06:47:40;5.38;;;1.90;;
1106;SDS011;540;49.448;8.612;2023-08-08T06:50:09;3.92;;;1.70;;
1106;SDS011;540;49.448;8.612;2023-08-08T06:52:38;3.72;;;2.10;;
1106;SDS011;540;49.448;8.612;2023-08-08T06:55:06;3.75;;;1.30;;
1106;SDS011;540;49.448;8.612;2023-08-08T06:57:35;2.78;;;1.48;;
1106;SDS011;540;49.448;8.612;2023-08-08T07:00:03;2.55;;;1.45;;
1106;SDS011;540;49.448;8.612;2023-08-08T07:02:32;2.35;;;1.35;;
1106;SDS011;540;49.448;8.612;2023-08-08T07:05:00;2.60;;;1.38;;
1106;SDS011;540;49.448;8.612;2023-08-08T07:07:29;4.40;;;1.77;;
1106;SDS011;540;49.448;8.612;2023-08-08T07:10:00;3.42;;;1.30;;
1106;SDS011;540;49.448;8.612;2023-08-08T07:12:30;3.03;;;0.95;;
1106;SDS011;540;49.448;8.612;2023-08-08T07:14:58;2.90;;;1.55;;
1106;SDS011;540;49.448;8.612;2023-08-08T07:17:25;4.40;;;1.45;;
1106;SDS011;540;49.448;8.612;2023-08-08T07:19:53;3.42;;;1.85;;
1106;SDS011;540;49.448;8.612;2023-08-08T07:22:22;2.53;;;1.20;;
1106;SDS011;540;49.448;8.612;2023-08-08T07:24:52;2.95;;;1.40;;
1106;SDS011;540;49.448;8.612;2023-08-08T07:27:21;3.08;;;1.25;;
1106;SDS011;540;49.448;8.612;2023-08-08T07:29:49;5.07;;;1.38;;
1106;SDS011;540;49.448;8.612;2023-08-08T07:32:17;2.55;;;1.58;;
1106;SDS011;540;49.448;8.612;2023-08-08T07:34:44;1.92;;;1.08;;
1106;SDS011;540;49.448;8.612;2023-08-08T07:37:13;2.67;;;1.55;;
1106;SDS011;540;49.448;8.612;2023-08-08T07:39:41;1.90;;;1.00;;
1106;SDS011;540;49.448;8.612;2023-08-08T07:42:09;1.80;;;0.88;;
1106;SDS011;540;49.448;8.612;2023-08-08T07:44:38;2.60;;;1.20;;
1106;SDS011;540;49.448;8.612;2023-08-08T07:47:06;4.75;;;1.00;;
1106;SDS011;540;49.448;8.612;2023-08-08T07:49:37;1.67;;;1.05;;
1106;SDS011;540;49.448;8.612;2023-08-08T07:52:06;2.80;;;0.95;;
1106;SDS011;540;49.448;8.612;2023-08-08T07:54:34;1.30;;;0.90;;
1106;SDS011;540;49.448;8.612;2023-08-08T07:57:02;2.72;;;0.90;;
1106;SDS011;540;49.448;8.612;2023-08-08T07:59:30;3.33;;;1.02;;
1106;SDS011;540;49.448;8.612;2023-08-08T08:01:59;2.53;;;1.20;;
1106;SDS011;540;49.448;8.612;2023-08-08T08:04:29;1.80;;;1.13;;
1106;SDS011;540;49.448;8.612;2023-08-08T08:06:58;3.70;;;0.98;;
1106;SDS011;540;49.448;8.612;2023-08-08T08:09:27;1.23;;;0.75;;
1106;SDS011;540;49.448;8.612;2023-08-08T08:11:56;2.88;;;1.20;;
1106;SDS011;540;49.448;8.612;2023-08-08T08:14:25;1.63;;;0.95;;
1106;SDS011;540;49.448;8.612;2023-08-08T08:16:54;3.80;;;1.10;;
1106;SDS011;540;49.448;8.612;2023-08-08T08:19:24;4.50;;;1.20;;
1106;SDS011;540;49.448;8.612;2023-08-08T08:21:53;1.98;;;0.90;;
1106;SDS011;540;49.448;8.612;2023-08-08T08:24:21;1.85;;;1.00;;
1106;SDS011;540;49.448;8.612;2023-08-08T08:26:50;2.33;;;0.90;;
1106;SDS011;540;49.448;8.612;2023-08-08T08:29:20;1.50;;;1.00;;
1106;SDS011;540;49.448;8.612;2023-08-08T08:31:49;1.63;;;1.00;;
1106;SDS011;540;49.448;8.612;2023-08-08T08:34:17;3.30;;;0.90;;
1106;SDS011;540;49.448;8.612;2023-08-08T08:36:46;2.92;;;0.98;;
1106;SDS011;540;49.448;8.612;2023-08-08T08:39:14;1.17;;;0.82;;
1106;SDS011;540;49.448;8.612;2023-08-08T08:41:42;1.40;;;0.73;;
1106;SDS011;540;49.448;8.612;2023-08-08T08:44:14;4.75;;;1.38;;
1106;SDS011;540;49.448;8.612;2023-08-08T08:46:44;1.88;;;0.80;;
1106;SDS011;540;49.448;8.612;2023-08-08T08:49:15;4.10;;;1.30;;
1106;SDS011;540;49.448;8.612;2023-08-08T08:51:46;2.70;;;0.93;;
1106;SDS011;540;49.448;8.612;2023-08-08T08:54:14;2.25;;;0.70;;
1106;SDS011;540;49.448;8.612;2023-08-08T08:56:44;1.48;;;1.10;;
1106;SDS011;540;49.448;8.612;2023-08-08T08:59:13;2.55;;;0.90;;
1106;SDS011;540;49.448;8.612;2023-08-08T09:01:40;1.75;;;1.00;;
1106;SDS011;540;49.448;8.612;2023-08-08T09:04:09;1.25;;;0.88;;
1106;SDS011;540;49.448;8.612;2023-08-08T09:06:38;2.63;;;0.88;;
1106;SDS011;540;49.448;8.612;2023-08-08T09:09:07;2.25;;;0.93;;
1106;SDS011;540;49.448;8.612;2023-08-08T09:11:42;4.20;;;1.40;;
1106;SDS011;540;49.448;8.612;2023-08-08T09:14:15;2.67;;;1.25;;
1106;SDS011;540;49.448;8.612;2023-08-08T09:16:43;0.93;;;0.60;;
1106;SDS011;540;49.448;8.612;2023-08-08T09:19:12;1.20;;;0.80;;
1106;SDS011;540;49.448;8.612;2023-08-08T09:21:40;0.93;;;0.85;;
1106;SDS011;540;49.448;8.612;2023-08-08T09:24:10;2.17;;;0.85;;
1106;SDS011;540;49.448;8.612;2023-08-08T09:26:38;2.08;;;1.00;;
1106;SDS011;540;49.448;8.612;2023-08-08T09:29:06;1.35;;;0.73;;
1106;SDS011;540;49.448;8.612;2023-08-08T09:31:35;1.80;;;1.20;;
1106;SDS011;540;49.448;8.612;2023-08-08T09:34:03;7.22;;;1.23;;
1106;SDS011;540;49.448;8.612;2023-08-08T09:36:32;2.13;;;1.13;;
1106;SDS011;540;49.448;8.612;2023-08-08T09:39:03;4.07;;;0.90;;
1106;SDS011;540;49.448;8.612;2023-08-08T09:41:33;1.55;;;0.95;;
1106;SDS011;540;49.448;8.612;2023-08-08T09:44:01;1.35;;;1.00;;
1106;SDS011;540;49.448;8.612;2023-08-08T09:46:30;2.35;;;0.90;;
1106;SDS011;540;49.448;8.612;2023-08-08T09:48:58;2.70;;;0.80;;
1106;SDS011;540;49.448;8.612;2023-08-08T09:51:27;1.63;;;0.98;;
1106;SDS011;540;49.448;8.612;2023-08-08T09:53:55;3.03;;;0.80;;
1106;SDS011;540;49.448;8.612;2023-08-08T09:56:24;2.38;;;0.73;;
1106;SDS011;540;49.448;8.612;2023-08-08T09:58:53;2.55;;;1.00;;
1106;SDS011;540;49.448;8.612;2023-08-08T10:01:22;3.67;;;0.90;;
1106;SDS011;540;49.448;8.612;2023-08-08T10:03:52;2.28;;;1.05;;
1106;SDS011;540;49.448;8.612;2023-08-08T10:06:20;3.22;;;1.10;;
1106;SDS011;540;49.448;8.612;2023-08-08T10:08:48;1.65;;;0.98;;
1106;SDS011;540;49.448;8.612;2023-08-08T10:11:17;4.35;;;1.20;;
1106;SDS011;540;49.448;8.612;2023-08-08T10:13:47;3.42;;;0.90;;
1106;SDS011;540;49.448;8.612;2023-08-08T10:16:17;3.28;;;0.95;;
1106;SDS011;540;49.448;8.612;2023-08-08T10:18:54;2.33;;;0.95;;
1106;SDS011;540;49.448;8.612;2023-08-08T10:21:23;1.13;;;0.77;;
1106;SDS011;540;49.448;8.612;2023-08-08T10:24:00;1.55;;;0.88;;
1106;SDS011;540;49.448;8.612;2023-08-08T10:26:30;1.15;;;0.95;;
1106;SDS011;540;49.448;8.612;2023-08-08T10:28:58;1.05;;;0.70;;
1106;SDS011;540;49.448;8.612;2023-08-08T10:31:32;1.25;;;0.80;;
1106;SDS011;540;49.448;8.612;2023-08-08T10:34:01;2.72;;;0.80;;
1106;SDS011;540;49.448;8.612;2023-08-08T10:36:44;2.13;;;1.00;;
1106;SDS011;540;49.448;8.612;2023-08-08T10:39:15;3.60;;;0.90;;
1106;SDS011;540;49.448;8.612;2023-08-08T10:41:45;3.33;;;1.13;;
1106;SDS011;540;49.448;8.612;2023-08-08T10:44:20;1.85;;;1.20;;
1106;SDS011;540;49.448;8.612;2023-08-08T10:46:51;1.70;;;0.98;;
1106;SDS011;540;49.448;8.612;2023-08-08T10:49:23;1.58;;;0.90;;
1106;SDS011;540;49.448;8.612;2023-08-08T10:51:51;1.75;;;0.90;;
1106;SDS011;540;49.448;8.612;2023-08-08T10:54:20;2.92;;;1.08;;
1106;SDS011;540;49.448;8.612;2023-08-08T10:56:54;2.58;;;1.20;;
1106;SDS011;540;49.448;8.612;2023-08-08T10:59:26;1.55;;;1.00;;
1106;SDS011;540;49.448;8.612;2023-08-08T11:01:57;1.08;;;0.77;;
1106;SDS011;540;49.448;8.612;2023-08-08T11:04:29;0.90;;;0.85;;
1106;SDS011;540;49.448;8.612;2023-08-08T11:06:58;1.17;;;0.73;;
1106;SDS011;540;49.448;8.612;2023-08-08T11:09:26;2.00;;;0.93;;
1106;SDS011;540;49.448;8.612;2023-08-08T11:11:54;4.07;;;1.20;;
1106;SDS011;540;49.448;8.612;2023-08-08T11:14:23;2.88;;;0.90;;
1106;SDS011;540;49.448;8.612;2023-08-08T11:16:51;3.33;;;0.93;;
1106;SDS011;540;49.448;8.612;2023-08-08T11:19:20;2.33;;;0.80;;
1106;SDS011;540;49.448;8.612;2023-08-08T11:21:49;1.35;;;0.90;;
1106;SDS011;540;49.448;8.612;2023-08-08T11:24:17;3.45;;;1.27;;
1106;SDS011;540;49.448;8.612;2023-08-08T11:26:45;1.55;;;0.80;;
1106;SDS011;540;49.448;8.612;2023-08-08T11:29:14;1.67;;;0.80;;
1106;SDS011;540;49.448;8.612;2023-08-08T11:31:42;1.63;;;0.80;;
1106;SDS011;540;49.448;8.612;2023-08-08T11:34:10;1.52;;;0.80;;
1106;SDS011;540;49.448;8.612;2023-08-08T11:36:40;1.92;;;0.98;;
1106;SDS011;540;49.448;8.612;2023-08-08T11:39:08;1.48;;;0.80;;
1106;SDS011;540;49.448;8.612;2023-08-08T11:41:36;2.55;;;0.80;;
1106;SDS011;540;49.448;8.612;2023-08-08T11:44:06;2.63;;;0.90;;
1106;SDS011;540;49.448;8.612;2023-08-08T11:46:35;2.47;;;0.95;;
1106;SDS011;540;49.448;8.612;2023-08-08T11:49:09;1.50;;;0.82;;
1106;SDS011;540;49.448;8.612;2023-08-08T11:51:37;1.60;;;0.90;;
1106;SDS011;540;49.448;8.612;2023-08-08T11:54:07;3.13;;;0.90;;
1106;SDS011;540;49.448;8.612;2023-08-08T11:56:35;1.33;;;0.75;;
1106;SDS011;540;49.448;8.612;2023-08-08T11:59:04;3.78;;;0.88;;
1106;SDS011;540;49.448;8.612;2023-08-08T12:01:32;0.95;;;0.70;;
1106;SDS011;540;49.448;8.612;2023-08-08T12:04:04;3.03;;;0.70;;
1106;SDS011;540;49.448;8.612;2023-08-08T12:06:36;2.28;;;0.90;;
1106;SDS011;540;49.448;8.612;2023-08-08T12:09:06;3.63;;;0.98;;
1106;SDS011;540;49.448;8.612;2023-08-08T12:11:34;2.10;;;0.95;;
1106;SDS011;540;49.448;8.612;2023-08-08T12:14:03;0.90;;;0.80;;
1106;SDS011;540;49.448;8.612;2023-08-08T12:16:31;1.52;;;1.00;;
1106;SDS011;540;49.448;8.612;2023-08-08T12:19:00;1.48;;;0.70;;
1106;SDS011;540;49.448;8.612;2023-08-08T12:21:29;1.67;;;0.75;;
1106;SDS011;540;49.448;8.612;2023-08-08T12:23:59;2.08;;;0.95;;
1106;SDS011;540;49.448;8.612;2023-08-08T12:26:28;1.88;;;0.85;;
1106;SDS011;540;49.448;8.612;2023-08-08T12:28:56;3.30;;;1.58;;
1106;SDS011;540;49.448;8.612;2023-08-08T12:31:24;2.63;;;0.73;;
1106;SDS011;540;49.448;8.612;2023-08-08T12:33:52;1.40;;;0.82;;
1106;SDS011;540;49.448;8.612;2023-08-08T12:36:20;1.30;;;1.20;;
1106;SDS011;540;49.448;8.612;2023-08-08T12:38:48;2.10;;;1.00;;
1106;SDS011;540;49.448;8.612;2023-08-08T12:41:16;1.60;;;0.75;;
1106;SDS011;540;49.448;8.612;2023-08-08T12:43:45;2.08;;;0.73;;
1106;SDS011;540;49.448;8.612;2023-08-08T12:46:13;0.95;;;0.85;;
1106;SDS011;540;49.448;8.612;2023-08-08T12:48:41;2.17;;;0.80;;
1106;SDS011;540;49.448;8.612;2023-08-08T12:51:10;1.77;;;1.02;;
1106;SDS011;540;49.448;8.612;2023-08-08T12:53:38;1.55;;;0.90;;
1106;SDS011;540;49.448;8.612;2023-08-08T12:56:06;1.55;;;0.75;;
1106;SDS011;540;49.448;8.612;2023-08-08T12:58:33;2.42;;;1.20;;
1106;SDS011;540;49.448;8.612;2023-08-08T13:01:03;1.55;;;0.80;;
1106;SDS011;540;49.448;8.612;2023-08-08T13:03:31;1.60;;;0.70;;
1106;SDS011;540;49.448;8.612;2023-08-08T13:06:00;1.50;;;0.90;;
1106;SDS011;540;49.448;8.612;2023-08-08T13:08:28;2.42;;;0.82;;
1106;SDS011;540;49.448;8.612;2023-08-08T13:10:55;0.95;;;0.90;;
1106;SDS011;540;49.448;8.612;2023-08-08T13:13:23;1.35;;;0.80;;
1106;SDS011;540;49.448;8.612;2023-08-08T13:15:52;2.35;;;0.80;;
1106;SDS011;540;49.448;8.612;2023-08-08T13:18:21;3.70;;;0.80;;
1106;SDS011;540;49.448;8.612;2023-08-08T13:20:49;3.13;;;0.80;;
1106;SDS011;540;49.448;8.612;2023-08-08T13:23:17;2.80;;;1.00;;
1106;SDS011;540;49.448;8.612;2023-08-08T13:25:45;2.20;;;0.93;;
1106;SDS011;540;49.448;8.612;2023-08-08T13:28:13;3.40;;;0.70;;
1106;SDS011;540;49.448;8.612;2023-08-08T13:30:40;2.08;;;0.80;;
1106;SDS011;540;49.448;8.612;2023-08-08T13:33:09;1.88;;;1.02;;
1106;SDS011;540;49.448;8.612;2023-08-08T13:35:38;1.98;;;0.90;;
1106;SDS011;540;49.448;8.612;2023-08-08T13:38:06;1.83;;;0.77;;
1106;SDS011;540;49.448;8.612;2023-08-08T13:40:40;1.30;;;0.90;;
1106;SDS011;540;49.448;8.612;2023-08-08T13:43:08;1.33;;;0.80;;
1106;SDS011;540;49.448;8.612;2023-08-08T13:45:36;1.77;;;0.90;;
1106;SDS011;540;49.448;8.612;2023-08-08T13:48:04;1.38;;;0.77;;
1106;SDS011;540;49.448;8.612;2023-08-08T13:50:32;3.20;;;1.33;;
1106;SDS011;540;49.448;8.612;2023-08-08T13:53:02;1.30;;;0.88;;
1106;SDS011;540;49.448;8.612;2023-08-08T13:55:30;2.72;;;1.05;;
1106;SDS011;540;49.448;8.612;2023-08-08T13:58:05;4.50;;;1.10;;
1106;SDS011;540;49.448;8.612;2023-08-08T14:00:33;2.65;;;0.93;;
1106;SDS011;540;49.448;8.612;2023-08-08T14:03:01;1.10;;;0.73;;
1106;SDS011;540;49.448;8.612;2023-08-08T14:05:30;1.85;;;0.70;;
1106;SDS011;540;49.448;8.612;2023-08-08T14:07:58;1.70;;;0.73;;
1106;SDS011;540;49.448;8.612;2023-08-08T14:10:26;2.30;;;0.80;;
1106;SDS011;540;49.448;8.612;2023-08-08T14:12:54;1.00;;;0.50;;
1106;SDS011;540;49.448;8.612;2023-08-08T14:15:22;1.60;;;0.88;;
1106;SDS011;540;49.448;8.612;2023-08-08T14:17:50;2.28;;;0.88;;
1106;SDS011;540;49.448;8.612;2023-08-08T14:20:17;1.38;;;0.80;;
1106;SDS011;540;49.448;8.612;2023-08-08T14:22:46;3.20;;;1.00;;
1106;SDS011;540;49.448;8.612;2023-08-08T14:25:14;1.20;;;1.05;;
1106;SDS011;540;49.448;8.612;2023-08-08T14:27:44;1.92;;;0.90;;
1106;SDS011;540;49.448;8.612;2023-08-08T14:30:11;1.55;;;0.75;;
1106;SDS011;540;49.448;8.612;2023-08-08T14:32:39;3.03;;;0.80;;
1106;SDS011;540;49.448;8.612;2023-08-08T14:35:08;2.30;;;0.73;;
1106;SDS011;540;49.448;8.612;2023-08-08T14:37:36;2.03;;;0.82;;
1106;SDS011;540;49.448;8.612;2023-08-08T14:40:05;2.67;;;0.95;;
1106;SDS011;540;49.448;8.612;2023-08-08T14:42:33;2.53;;;1.10;;
1106;SDS011;540;49.448;8.612;2023-08-08T14:45:03;4.45;;;1.00;;
1106;SDS011;540;49.448;8.612;2023-08-08T14:47:31;3.40;;;1.60;;
1106;SDS011;540;49.448;8.612;2023-08-08T14:49:59;2.75;;;0.60;;
1106;SDS011;540;49.448;8.612;2023-08-08T14:52:27;1.58;;;0.70;;
1106;SDS011;540;49.448;8.612;2023-08-08T14:54:55;3.65;;;0.80;;
1106;SDS011;540;49.448;8.612;2023-08-08T14:57:23;3.28;;;0.90;;
1106;SDS011;540;49.448;8.612;2023-08-08T14:59:51;1.50;;;0.70;;
1106;SDS011;540;49.448;8.612;2023-08-08T15:02:20;1.75;;;1.05;;
1106;SDS011;540;49.448;8.612;2023-08-08T15:04:48;3.65;;;0.90;;
1106;SDS011;540;49.448;8.612;2023-08-08T15:07:18;3.65;;;0.98;;
1106;SDS011;540;49.448;8.612;2023-08-08T15:09:46;2.60;;;0.93;;
1106;SDS011;540;49.448;8.612;2023-08-08T15:12:14;0.68;;;0.60;;
1106;SDS011;540;49.448;8.612;2023-08-08T15:14:43;1.58;;;0.80;;
1106;SDS011;540;49.448;8.612;2023-08-08T15:17:11;3.63;;;0.77;;
1106;SDS011;540;49.448;8.612;2023-08-08T15:19:40;2.83;;;0.63;;
1106;SDS011;540;49.448;8.612;2023-08-08T15:22:08;3.25;;;0.93;;
1106;SDS011;540;49.448;8.612;2023-08-08T15:24:36;0.95;;;0.50;;
1106;SDS011;540;49.448;8.612;2023-08-08T15:27:04;2.38;;;0.90;;
1106;SDS011;540;49.448;8.612;2023-08-08T15:29:32;1.65;;;0.90;;
1106;SDS011;540;49.448;8.612;2023-08-08T15:32:01;1.48;;;0.75;;
1106;SDS011;540;49.448;8.612;2023-08-08T15:34:29;2.13;;;0.82;;
1106;SDS011;540;49.448;8.612;2023-08-08T15:36:58;3.42;;;0.98;;
1106;SDS011;540;49.448;8.612;2023-08-08T15:39:28;2.60;;;0.90;;